Time;durP1;ratioP1;P1;durP2;ratioP2;P2;SDS_P1;SDS_P2;PMS_P1;PMS_P2;Temp;Humidity;BMP_temperature;BMP_pressure;BME280_temperature;BME280_humidity;BME280_pressure;Samples;Min_cycle;Max_cycle;Signal;HPM_P1;HPM_P2
2021/04/18 00:00:21;;;;;;;12.18;5.30;;;;;;;11.08;80.90;101628.69;4962939;28;20094;-73
2021/04/18 00:02:48;;;;;;;11.25;4.90;;;;;;;11.22;79.59;101638.06;4966702;28;20038;-74
2021/04/18 00:05:15;;;;;;;14.60;6.15;;;;;;;10.82;82.30;101628.94;4953273;28;20058;-74
2021/04/18 00:07:41;;;;;;;15.30;5.85;;;;;;;10.87;82.58;101629.56;4953232;28;20053;-74
2021/04/18 00:10:07;;;;;;;13.15;5.63;;;;;;;11.04;81.84;101622.41;4968514;28;20500;-73
2021/04/18 00:12:33;;;;;;;11.65;6.18;;;;;;;10.92;82.58;101623.16;4971013;28;20025;-74
2021/04/18 00:14:59;;;;;;;16.02;6.28;;;;;;;10.66;83.95;101625.31;4966505;28;20035;-74
2021/04/18 00:17:24;;;;;;;14.98;6.30;;;;;;;10.48;85.54;101622.00;4967946;28;20035;-74
2021/04/18 00:19:50;;;;;;;16.73;6.40;;;;;;;10.68;85.18;101620.38;4958362;28;20082;-74
2021/04/18 00:22:16;;;;;;;16.27;6.60;;;;;;;10.80;84.99;101620.44;4968901;28;20031;-74
2021/04/18 00:24:41;;;;;;;13.82;6.20;;;;;;;10.85;84.58;101610.25;4970102;28;20562;-74
2021/04/18 00:27:07;;;;;;;16.42;6.43;;;;;;;10.79;84.87;101608.06;4966951;28;20119;-74
2021/04/18 00:29:33;;;;;;;15.82;6.78;;;;;;;10.49;86.08;101607.38;4963859;28;20522;-74
2021/04/18 00:31:59;;;;;;;14.27;6.45;;;;;;;10.72;85.86;101605.16;4961614;28;20031;-74
2021/04/18 00:34:24;;;;;;;17.13;7.38;;;;;;;10.77;86.14;101610.31;4970217;28;20488;-73
2021/04/18 00:37:10;;;;;;;16.73;7.28;;;;;;;10.97;84.98;101609.47;4961509;28;20512;-73
2021/04/18 00:39:36;;;;;;;16.40;6.85;;;;;;;10.89;84.79;101613.84;4913346;29;20135;-74
2021/04/18 00:42:01;;;;;;;20.55;7.15;;;;;;;10.88;84.86;101616.84;4931920;29;20585;-74
2021/04/18 00:44:27;;;;;;;15.95;6.75;;;;;;;10.84;85.57;101613.25;4909894;29;20076;-74
2021/04/18 00:46:52;;;;;;;15.23;7.45;;;;;;;10.81;86.21;101619.31;4911050;29;20067;-74
2021/04/18 00:49:18;;;;;;;20.42;7.47;;;;;;;10.65;87.34;101611.06;4926625;29;20051;-74
2021/04/18 00:51:43;;;;;;;15.85;6.65;;;;;;;10.64;87.15;101611.41;4929894;29;20047;-74
2021/04/18 00:54:09;;;;;;;12.95;6.45;;;;;;;10.58;87.22;101615.41;4924910;29;20040;-74
2021/04/18 00:56:34;;;;;;;13.35;6.50;;;;;;;10.52;87.28;101614.81;4912550;29;20099;-74
2021/04/18 00:59:00;;;;;;;19.17;7.30;;;;;;;10.39;88.45;101607.81;4912901;29;20111;-74
2021/04/18 01:01:25;;;;;;;16.52;7.10;;;;;;;10.52;87.79;101612.13;4897474;29;20036;-73
2021/04/18 01:03:52;;;;;;;16.02;7.18;;;;;;;10.46;87.65;101597.28;4961923;22;20410;-73
2021/04/18 01:06:17;;;;;;;14.18;6.80;;;;;;;10.45;87.80;101603.78;4987557;28;20034;-74
2021/04/18 01:08:45;;;;;;;22.48;6.75;;;;;;;10.38;88.76;101590.06;4975388;28;20521;-76
2021/04/18 01:11:11;;;;;;;15.90;7.05;;;;;;;10.31;88.20;101589.03;4988682;28;20121;-73
2021/04/18 01:13:36;;;;;;;14.02;6.10;;;;;;;10.52;87.62;101593.28;4976777;28;20035;-75
2021/04/18 01:16:02;;;;;;;17.75;6.63;;;;;;;10.37;88.18;101593.91;4964269;28;20073;-74
2021/04/18 01:18:28;;;;;;;14.85;6.47;;;;;;;10.32;88.05;101595.97;4962969;28;20035;-74
2021/04/18 01:21:21;;;;;;;18.85;6.28;;;;;;;10.30;88.29;101582.84;4953521;28;20396;-74
2021/04/18 01:24:05;;;;;;;13.68;6.65;;;;;;;10.19;88.54;101588.97;4941667;29;20082;-74
2021/04/18 01:26:57;;;;;;;14.23;6.63;;;;;;;10.15;89.11;101588.84;4955524;28;20515;-73
2021/04/18 01:29:23;;;;;;;18.23;6.68;;;;;;;10.11;88.68;101579.03;4958068;28;20419;-76
2021/04/18 01:31:49;;;;;;;11.82;6.57;;;;;;;10.28;88.69;101585.09;4952236;28;20042;-74
2021/04/18 01:34:15;;;;;;;18.52;6.78;;;;;;;10.33;88.15;101592.97;4952995;28;20039;-74
2021/04/18 01:36:45;;;;;;;16.10;7.07;;;;;;;10.20;87.61;101585.94;4951646;28;20054;-74
2021/04/18 01:39:12;;;;;;;15.43;6.97;;;;;;;10.08;88.05;101580.47;4953712;28;20039;-73
2021/04/18 01:41:38;;;;;;;11.68;6.60;;;;;;;10.06;88.44;101579.22;4954478;28;20070;-74
2021/04/18 01:44:06;;;;;;;11.95;6.35;;;;;;;9.96;88.50;101578.50;4954496;28;20039;-73
2021/04/18 01:46:32;;;;;;;13.13;6.45;;;;;;;10.00;89.11;101586.72;4935538;28;20042;-74
2021/04/18 01:48:59;;;;;;;12.70;6.55;;;;;;;10.01;88.50;101580.19;4969764;28;20034;-74
2021/04/18 01:51:25;;;;;;;15.35;6.72;;;;;;;10.00;88.40;101573.25;4950319;28;20508;-76
2021/04/18 01:53:51;;;;;;;14.93;6.07;;;;;;;9.97;88.82;101577.38;4967717;28;20034;-74
2021/04/18 01:56:17;;;;;;;16.90;6.05;;;;;;;10.04;88.27;101566.09;4965962;28;20031;-74
2021/04/18 01:58:43;;;;;;;16.67;5.75;;;;;;;10.04;87.38;101571.47;4951678;28;20027;-74
2021/04/18 02:01:17;;;;;;;12.95;5.55;;;;;;;10.23;86.34;101571.03;4929962;28;20027;-74
2021/04/18 02:03:45;;;;;;;10.45;4.90;;;;;;;10.23;85.70;101571.03;4936834;29;20118;-75
2021/04/18 02:06:11;;;;;;;10.13;5.70;;;;;;;10.27;85.49;101569.28;4954377;28;20114;-74
2021/04/18 02:08:46;;;;;;;13.13;5.35;;;;;;;10.15;85.39;101571.88;4947705;28;20147;-74
2021/04/18 02:11:14;;;;;;;10.68;5.53;;;;;;;10.17;85.55;101573.16;4953461;28;20035;-74
2021/04/18 02:13:40;;;;;;;10.95;5.22;;;;;;;10.09;85.24;101565.91;4952379;28;20039;-74
2021/04/18 02:16:16;;;;;;;12.82;5.00;;;;;;;10.00;85.59;101584.81;4936579;29;20039;-74
2021/04/18 02:19:00;;;;;;;12.95;5.20;;;;;;;10.02;85.50;101571.03;4937877;29;20035;-74
2021/04/18 02:21:28;;;;;;;10.70;5.10;;;;;;;10.09;84.80;101565.91;4954597;28;20027;-74
2021/04/18 02:23:54;;;;;;;9.23;4.45;;;;;;;10.08;84.06;101564.34;4934009;28;20511;-74
2021/04/18 02:26:20;;;;;;;9.13;5.10;;;;;;;10.09;83.53;101562.41;4934228;28;20032;-74
2021/04/18 02:28:49;;;;;;;9.82;4.68;;;;;;;10.06;83.80;101568.47;4933458;28;20023;-74
2021/04/18 02:31:16;;;;;;;10.82;4.82;;;;;;;10.00;83.58;101567.88;4947933;28;20031;-75
2021/04/18 02:33:42;;;;;;;12.05;4.07;;;;;;;9.92;83.30;101569.50;4952972;28;20039;-76
2021/04/18 02:36:08;;;;;;;9.38;4.30;;;;;;;9.75;84.79;101561.56;4945059;28;20059;-74
2021/04/18 02:38:34;;;;;;;14.05;4.38;;;;;;;9.68;85.12;101555.88;4950698;29;20549;-74
2021/04/18 02:41:00;;;;;;;12.57;4.57;;;;;;;9.65;84.68;101566.53;4935816;29;20555;-74
2021/04/18 02:43:25;;;;;;;11.98;4.28;;;;;;;9.74;83.86;101567.25;4948595;28;20047;-74
2021/04/18 02:45:53;;;;;;;12.40;4.30;;;;;;;9.59;84.48;101554.38;4952847;28;20512;-74
2021/04/18 02:48:19;;;;;;;10.57;4.15;;;;;;;9.69;83.45;101556.69;4952219;28;20070;-75
2021/04/18 02:50:44;;;;;;;9.75;4.50;;;;;;;9.62;83.09;101551.81;4953075;28;20036;-74
2021/04/18 02:53:11;;;;;;;8.00;4.03;;;;;;;9.59;82.99;101549.00;4952395;28;20460;-74
2021/04/18 02:55:37;;;;;;;8.43;3.88;;;;;;;9.33;84.50;101548.34;4951897;28;20105;-74
2021/04/18 02:58:18;;;;;;;10.63;3.97;;;;;;;9.36;83.87;101551.19;4931322;29;20130;-73
2021/04/18 03:00:47;;;;;;;12.63;4.28;;;;;;;9.31;83.92;101553.28;4927619;29;20042;-73
2021/04/18 03:03:13;;;;;;;10.05;4.15;;;;;;;9.51;83.34;101549.81;4960020;28;20431;-74
2021/04/18 03:05:39;;;;;;;7.82;4.00;;;;;;;9.38;83.69;101548.16;4951739;28;20093;-74
2021/04/18 03:08:07;;;;;;;6.82;3.45;;;;;;;9.26;84.07;101548.84;4952025;28;20459;-73
2021/04/18 03:10:33;;;;;;;15.10;4.25;;;;;;;9.22;84.17;101539.84;4947818;28;20032;-73
2021/04/18 03:12:59;;;;;;;7.70;4.00;;;;;;;9.06;85.34;101544.97;4951805;28;20118;-73
2021/04/18 03:15:29;;;;;;;10.52;3.63;;;;;;;9.19;84.18;101543.22;4952346;28;20038;-73
2021/04/18 03:17:56;;;;;;;7.93;4.43;;;;;;;9.02;85.36;101544.03;4947198;29;20031;-74
2021/04/18 03:20:22;;;;;;;11.98;4.00;;;;;;;9.02;85.29;101544.03;4948110;28;20063;-73
2021/04/18 03:22:49;;;;;;;9.18;3.90;;;;;;;8.96;85.77;101556.06;4945679;28;20086;-73
2021/04/18 03:25:16;;;;;;;7.50;3.63;;;;;;;8.84;86.39;101552.50;4941694;28;20047;-73
2021/04/18 03:27:45;;;;;;;9.45;4.35;;;;;;;9.00;85.67;101551.63;4962234;28;20411;-73
2021/04/18 03:30:17;;;;;;;10.80;3.47;;;;;;;8.88;86.19;101554.19;4951282;28;20522;-73
2021/04/18 03:32:51;;;;;;;7.50;3.58;;;;;;;8.89;85.91;101549.63;4942723;28;20511;-73
2021/04/18 03:35:17;;;;;;;9.32;3.83;;;;;;;8.73;86.45;101551.28;4947706;28;20027;-73
2021/04/18 03:37:45;;;;;;;8.30;3.97;;;;;;;8.83;86.29;101554.38;4926435;28;20055;-73
2021/04/18 03:40:11;;;;;;;11.90;4.15;;;;;;;8.86;86.20;101563.72;4958113;28;20059;-73
2021/04/18 03:42:37;;;;;;;8.50;3.47;;;;;;;8.84;86.33;101561.34;4948066;28;20035;-73
2021/04/18 03:45:05;;;;;;;12.20;3.65;;;;;;;8.87;86.09;101563.38;4951992;28;20069;-73
2021/04/18 03:47:31;;;;;;;10.38;3.80;;;;;;;8.77;86.67;101555.66;4934737;29;20062;-75
2021/04/18 03:50:05;;;;;;;11.63;3.75;;;;;;;8.82;86.15;101550.13;4947104;28;20027;-73
2021/04/18 03:52:49;;;;;;;13.70;3.78;;;;;;;8.68;87.16;101556.78;4950562;28;20122;-73
2021/04/18 03:55:16;;;;;;;6.95;3.72;;;;;;;8.56;87.69;101562.00;4934938;29;20522;-73
2021/04/18 03:57:42;;;;;;;9.27;3.83;;;;;;;8.57;87.52;101556.34;4944531;28;20047;-73
2021/04/18 04:00:10;;;;;;;10.77;4.10;;;;;;;8.63;87.58;101548.91;4934174;29;20081;-73
2021/04/18 04:02:41;;;;;;;8.05;3.97;;;;;;;8.57;87.26;101550.97;4962348;28;20046;-74
2021/04/18 04:05:08;;;;;;;12.88;4.22;;;;;;;8.68;86.51;101559.47;4942627;28;20633;-74
2021/04/18 04:07:34;;;;;;;7.20;3.58;;;;;;;8.51;87.69;101557.63;4944702;28;20038;-74
2021/04/18 04:10:00;;;;;;;14.60;4.30;;;;;;;8.15;88.99;101565.16;4962671;28;20039;-73
2021/04/18 04:12:27;;;;;;;8.45;3.72;;;;;;;7.99;90.26;101569.44;4945959;28;20121;-74
2021/04/18 04:14:54;;;;;;;8.18;3.50;;;;;;;8.11;89.99;101574.94;4950239;28;20027;-73
2021/04/18 04:17:20;;;;;;;10.68;3.97;;;;;;;8.03;90.27;101565.03;4953326;28;20030;-75
2021/04/18 04:20:12;;;;;;;10.30;3.90;;;;;;;7.99;91.08;101569.44;4949807;28;20110;-73
2021/04/18 04:22:59;;;;;;;9.48;3.70;;;;;;;8.09;90.88;101569.91;4955852;28;20555;-74
2021/04/18 04:25:25;;;;;;;11.85;4.00;;;;;;;7.82;91.44;101564.84;4962470;28;20169;-72
2021/04/18 04:27:51;;;;;;;10.63;3.90;;;;;;;7.87;91.88;101566.59;4958042;28;20027;-73
2021/04/18 04:30:16;;;;;;;8.23;3.55;;;;;;;7.76;91.61;101581.41;4955854;28;20117;-74
2021/04/18 04:32:42;;;;;;;11.88;4.03;;;;;;;7.90;91.57;101577.47;4954345;28;20043;-73
2021/04/18 04:35:09;;;;;;;8.27;3.97;;;;;;;7.91;91.64;101573.69;4955350;28;20035;-74
2021/04/18 04:37:34;;;;;;;10.48;3.78;;;;;;;7.65;92.45;101574.72;4951226;28;20039;-74
2021/04/18 04:40:00;;;;;;;9.82;4.05;;;;;;;7.69;93.22;101587.22;4958616;28;20496;-73
2021/04/18 04:42:25;;;;;;;11.05;3.90;;;;;;;7.56;93.18;101581.97;4955632;28;20031;-73
2021/04/18 04:44:51;;;;;;;8.38;3.80;;;;;;;7.77;93.38;101585.66;4959212;28;20451;-74
2021/04/18 04:47:16;;;;;;;15.65;4.20;;;;;;;7.73;92.90;101592.72;4949998;28;20081;-73
2021/04/18 04:49:42;;;;;;;14.18;4.55;;;;;;;7.71;92.45;101586.88;4962392;28;20102;-73
2021/04/18 04:52:09;;;;;;;7.95;4.00;;;;;;;7.80;92.89;101585.03;4948647;28;20043;-73
2021/04/18 04:54:36;;;;;;;7.50;4.15;;;;;;;7.90;92.16;101592.75;4952927;28;20039;-73
2021/04/18 04:57:02;;;;;;;10.38;3.88;;;;;;;8.09;91.66;101587.91;4944493;28;20033;-73
2021/04/18 04:59:28;;;;;;;8.15;3.90;;;;;;;8.28;90.60;101584.94;4954016;28;20023;-73
2021/04/18 05:01:53;;;;;;;14.68;3.88;;;;;;;8.32;90.24;101588.56;4942014;28;20480;-74
2021/04/18 05:04:19;;;;;;;11.35;4.50;;;;;;;8.32;90.46;101584.00;4960106;28;20034;-73
2021/04/18 05:06:44;;;;;;;9.57;4.15;;;;;;;8.25;90.30;101581.00;4969576;28;20066;-74
2021/04/18 05:09:09;;;;;;;11.00;4.25;;;;;;;8.30;89.47;101585.41;4962631;28;20157;-74
2021/04/18 05:11:35;;;;;;;10.90;4.43;;;;;;;8.27;90.47;101584.16;4955152;28;20713;-73
2021/04/18 05:14:00;;;;;;;9.20;4.05;;;;;;;8.27;90.14;101589.50;4944414;28;20428;-73
2021/04/18 05:16:26;;;;;;;14.15;4.90;;;;;;;8.34;89.61;101581.78;4954883;28;20043;-73
2021/04/18 05:18:51;;;;;;;8.45;4.15;;;;;;;8.27;90.15;101588.72;4939906;28;20046;-72
2021/04/18 05:21:17;;;;;;;12.10;4.40;;;;;;;8.31;90.73;101595.81;4957337;28;20396;-73
2021/04/18 05:23:42;;;;;;;12.85;3.95;;;;;;;8.43;90.38;101595.19;4961213;28;20443;-73
2021/04/18 05:26:09;;;;;;;12.90;3.97;;;;;;;8.61;89.99;101594.88;4957840;28;20027;-75
2021/04/18 05:28:35;;;;;;;11.43;4.38;;;;;;;8.58;90.54;101592.00;4942490;28;20545;-74
2021/04/18 05:31:00;;;;;;;10.18;4.28;;;;;;;8.69;90.20;101595.97;4971177;28;20117;-74
2021/04/18 05:33:26;;;;;;;11.38;4.35;;;;;;;8.74;89.28;101601.97;4951065;28;20123;-73
2021/04/18 05:35:51;;;;;;;13.95;4.63;;;;;;;8.79;89.63;101592.94;4966405;28;20135;-73
2021/04/18 05:38:17;;;;;;;11.20;3.88;;;;;;;8.80;89.50;101591.84;4962426;28;20484;-73
2021/04/18 05:40:43;;;;;;;9.95;4.47;;;;;;;8.84;89.00;101588.19;4966462;28;20515;-73
2021/04/18 05:43:09;;;;;;;12.57;4.53;;;;;;;8.86;89.11;101590.56;4947867;28;20484;-73
2021/04/18 05:45:35;;;;;;;13.40;4.65;;;;;;;8.89;89.05;101598.75;4970351;28;20443;-73
2021/04/18 05:48:01;;;;;;;10.73;4.18;;;;;;;8.87;89.14;101594.81;4945720;28;20123;-74
2021/04/18 05:50:26;;;;;;;13.43;4.65;;;;;;;8.87;89.48;101592.94;4954193;29;20118;-73
2021/04/18 05:52:52;;;;;;;12.23;4.32;;;;;;;9.06;88.95;101587.97;4951191;28;20559;-73
2021/04/18 05:55:17;;;;;;;12.93;5.00;;;;;;;9.10;88.40;101588.91;4959415;28;20047;-74
2021/04/18 05:57:43;;;;;;;12.57;4.40;;;;;;;9.18;88.56;101595.34;4935409;29;20105;-73
2021/04/18 06:00:09;;;;;;;13.55;4.38;;;;;;;9.19;88.18;101585.41;4946642;29;20031;-73
2021/04/18 06:02:41;;;;;;;14.65;4.28;;;;;;;9.18;89.50;101586.50;4942533;28;20504;-72
2021/04/18 06:05:07;;;;;;;13.13;4.45;;;;;;;9.31;88.55;101588.22;4943515;29;20047;-73
2021/04/18 06:07:33;;;;;;;12.70;4.43;;;;;;;9.35;88.45;101583.78;4946376;28;20034;-73
2021/04/18 06:09:58;;;;;;;14.10;5.75;;;;;;;9.40;89.01;101589.75;4950045;29;20419;-73
2021/04/18 06:12:24;;;;;;;12.57;4.57;;;;;;;9.50;88.42;101585.91;4948096;28;20047;-72
2021/04/18 06:14:49;;;;;;;8.93;4.32;;;;;;;9.31;88.41;101582.84;4952907;28;20031;-74
2021/04/18 06:17:15;;;;;;;12.77;4.35;;;;;;;9.22;89.75;101590.13;4950070;29;20045;-74
2021/04/18 06:19:40;;;;;;;15.20;4.25;;;;;;;9.46;89.17;101585.78;4945824;28;20035;-72
2021/04/18 06:22:06;;;;;;;12.18;4.00;;;;;;;9.62;87.46;101576.00;4959007;28;20045;-73
2021/04/18 06:24:31;;;;;;;9.73;4.15;;;;;;;9.77;87.09;101591.63;4959760;28;20043;-73
2021/04/18 06:26:57;;;;;;;11.90;4.53;;;;;;;9.76;86.34;101605.38;4963385;28;20411;-73
2021/04/18 06:29:22;;;;;;;9.90;4.25;;;;;;;9.76;87.00;101597.28;4953496;28;20039;-72
2021/04/18 06:31:48;;;;;;;11.38;4.63;;;;;;;9.90;86.03;101592.47;4940012;28;20608;-73
2021/04/18 06:34:13;;;;;;;10.73;4.32;;;;;;;9.93;86.20;101591.81;4958258;28;20031;-72
2021/04/18 06:36:39;;;;;;;9.18;4.35;;;;;;;10.05;85.70;101591.88;4952812;28;20568;-73
2021/04/18 06:39:05;;;;;;;12.95;4.85;;;;;;;10.13;85.35;101595.66;4941207;28;20031;-73
2021/04/18 06:41:34;;;;;;;12.50;4.78;;;;;;;10.13;86.34;101592.97;4939938;28;20035;-73
2021/04/18 06:44:01;;;;;;;14.65;4.13;;;;;;;10.17;85.95;101586.59;4939078;28;20035;-72
2021/04/18 06:46:26;;;;;;;10.07;4.72;;;;;;;10.25;85.59;101582.25;4938307;28;20464;-73
2021/04/18 06:48:52;;;;;;;8.40;4.05;;;;;;;10.42;84.77;101585.59;4935256;28;20106;-73
2021/04/18 06:51:21;;;;;;;9.88;4.50;;;;;;;10.58;84.74;101583.09;4934559;28;20515;-73
2021/04/18 06:53:47;;;;;;;12.07;4.50;;;;;;;10.80;83.50;101578.09;4952026;28;20443;-76
2021/04/18 06:56:13;;;;;;;11.02;4.32;;;;;;;10.92;82.25;101582.72;4918569;29;20040;-73
2021/04/18 06:58:39;;;;;;;15.43;4.78;;;;;;;11.35;81.74;101580.31;4940183;28;20079;-73
2021/04/18 07:01:05;;;;;;;10.80;4.32;;;;;;;11.52;80.99;101582.78;4929721;28;20449;-73
2021/04/18 07:03:31;;;;;;;10.70;4.03;;;;;;;11.85;80.51;101577.28;4980825;22;20411;-77
2021/04/18 07:05:58;;;;;;;12.88;4.82;;;;;;;12.14;78.98;101573.50;4963762;28;20034;-77
2021/04/18 07:08:31;;;;;;;11.13;4.38;;;;;;;12.38;77.24;101582.31;4999353;28;20645;-77
2021/04/18 07:11:21;;;;;;;13.10;4.72;;;;;;;12.58;75.75;101581.31;4971249;28;20037;-76
2021/04/18 07:13:47;;;;;;;10.18;4.22;;;;;;;12.88;74.18;101581.72;4970861;28;20582;-77
2021/04/18 07:16:30;;;;;;;11.23;4.30;;;;;;;13.24;72.66;101592.34;4967557;28;20499;-76
2021/04/18 07:18:57;;;;;;;13.35;4.50;;;;;;;13.36;70.98;101588.75;4965628;28;20069;-77
2021/04/18 07:21:23;;;;;;;12.18;4.45;;;;;;;13.11;71.01;101585.44;4966378;28;20027;-77
2021/04/18 07:23:49;;;;;;;10.75;4.90;;;;;;;13.40;71.58;101587.72;4947992;28;20035;-77
2021/04/18 07:26:25;;;;;;;11.48;4.75;;;;;;;13.57;69.76;101589.25;4972881;28;20050;-77
2021/04/18 07:29:10;;;;;;;11.13;4.45;;;;;;;13.59;68.89;101593.19;4964470;28;20035;-75
2021/04/18 07:31:35;;;;;;;8.20;4.28;;;;;;;13.52;68.47;101593.03;4955301;28;20130;-77
2021/04/18 07:34:07;;;;;;;11.80;4.03;;;;;;;13.59;69.15;101597.81;4959069;28;20479;-77
2021/04/18 07:36:33;;;;;;;9.90;4.15;;;;;;;13.09;68.34;101597.75;4952730;28;20122;-76
2021/04/18 07:38:59;;;;;;;7.53;3.83;;;;;;;12.91;70.14;101597.25;4970668;28;20035;-76
2021/04/18 07:41:25;;;;;;;11.15;4.60;;;;;;;13.00;71.50;101597.09;4975445;28;20031;-78
2021/04/18 07:43:51;;;;;;;11.25;4.43;;;;;;;13.21;71.13;101592.25;4978118;28;20031;-76
2021/04/18 07:46:19;;;;;;;13.55;4.78;;;;;;;13.19;70.33;101578.28;4962939;28;20031;-78
2021/04/18 07:48:46;;;;;;;13.27;4.53;;;;;;;13.42;70.83;101588.16;4955311;28;20082;-78
2021/04/18 07:51:13;;;;;;;11.20;4.20;;;;;;;13.79;70.78;101577.78;4971018;28;20514;-78
2021/04/18 07:53:40;;;;;;;8.90;4.82;;;;;;;13.99;69.29;101581.31;4969150;28;20466;-77
2021/04/18 07:56:10;;;;;;;17.30;4.88;;;;;;;14.18;68.85;101576.69;4963494;28;20163;-77
2021/04/18 07:58:40;;;;;;;12.38;4.60;;;;;;;14.20;68.92;101579.06;4963467;28;20118;-76
2021/04/18 08:01:06;;;;;;;10.02;4.00;;;;;;;14.39;67.42;101563.59;4966727;28;20045;-77
2021/04/18 08:03:33;;;;;;;13.68;4.57;;;;;;;14.62;68.17;101566.34;4979131;28;20030;-77
2021/04/18 08:05:59;;;;;;;11.25;4.38;;;;;;;14.62;67.48;101560.16;4988265;28;20034;-75
2021/04/18 08:08:40;;;;;;;12.93;4.38;;;;;;;15.08;67.07;101567.16;4964039;28;20372;-78
2021/04/18 08:11:10;;;;;;;17.25;4.70;;;;;;;14.95;67.07;101563.88;4980802;28;20046;-76
2021/04/18 08:13:43;;;;;;;12.68;4.53;;;;;;;14.94;66.64;101556.84;4986364;28;20035;-76
2021/04/18 08:16:09;;;;;;;9.68;4.47;;;;;;;15.28;66.55;101572.19;4989862;28;20043;-75
2021/04/18 08:18:41;;;;;;;9.73;4.63;;;;;;;15.58;65.96;101560.63;4975572;28;20043;-75
2021/04/18 08:21:33;;;;;;;10.95;5.00;;;;;;;15.87;65.30;101554.44;4944506;28;20037;-76
2021/04/18 08:24:00;;;;;;;9.50;4.40;;;;;;;15.90;65.80;101556.41;4956300;28;20047;-76
2021/04/18 08:26:31;;;;;;;15.57;4.70;;;;;;;16.02;64.38;101556.19;4970691;28;20081;-77
2021/04/18 08:28:58;;;;;;;9.50;4.53;;;;;;;15.76;64.39;101561.66;4949867;28;20035;-77
2021/04/18 08:31:32;;;;;;;11.55;4.43;;;;;;;15.92;62.79;101556.84;4959273;28;20782;-77
2021/04/18 08:34:00;;;;;;;13.25;4.60;;;;;;;16.02;62.55;101556.97;4982321;28;20331;-76
2021/04/18 08:36:29;;;;;;;9.57;4.32;;;;;;;16.46;62.77;101570.69;4977502;28;20061;-80
2021/04/18 08:39:05;;;;;;;15.85;4.82;;;;;;;16.68;61.76;101563.59;4979199;28;20046;-76
2021/04/18 08:41:36;;;;;;;12.75;4.72;;;;;;;16.41;61.60;101567.53;4979903;28;20046;-76
2021/04/18 08:44:36;;;;;;;13.00;5.07;;;;;;;16.91;62.06;101562.28;4980401;28;20030;-77
2021/04/18 08:47:06;;;;;;;11.13;4.68;;;;;;;17.29;59.17;101563.75;4975327;28;20039;-78
2021/04/18 08:49:47;;;;;;;11.02;4.93;;;;;;;17.35;57.68;101561.44;4974854;28;20050;-78
2021/04/18 08:52:13;;;;;;;12.20;5.68;;;;;;;17.56;58.54;101562.41;4946718;28;20042;-78
2021/04/18 08:54:44;;;;;;;10.73;4.90;;;;;;;17.50;58.35;101561.19;4971820;28;20039;-78
2021/04/18 08:57:18;;;;;;;10.00;5.45;;;;;;;17.20;57.60;101576.13;4961770;28;20446;-77
2021/04/18 08:59:54;;;;;;;11.63;5.60;;;;;;;17.46;57.94;101576.69;4966139;28;20062;-78
2021/04/18 09:02:20;;;;;;;11.93;5.25;;;;;;;17.56;58.63;101573.31;4967548;28;20101;-78
2021/04/18 09:04:53;;;;;;;13.60;5.25;;;;;;;18.01;57.79;101577.47;4972575;28;20062;-78
2021/04/18 09:07:20;;;;;;;9.38;5.15;;;;;;;17.97;58.20;101571.22;4978096;28;20070;-77
2021/04/18 09:09:48;;;;;;;10.40;5.25;;;;;;;17.74;56.32;101570.69;4980877;28;20057;-77
2021/04/18 09:12:15;;;;;;;8.93;5.10;;;;;;;18.12;56.93;101563.91;4967093;28;20093;-78
2021/04/18 09:14:44;;;;;;;9.20;4.30;;;;;;;18.00;55.88;101565.00;4942250;28;20111;-77
2021/04/18 09:17:16;;;;;;;7.07;4.82;;;;;;;18.08;55.14;101561.13;4957877;28;20054;-78
2021/04/18 09:20:02;;;;;;;9.77;4.93;;;;;;;18.33;55.53;101561.25;4959061;28;20049;-78
2021/04/18 09:22:29;;;;;;;10.35;5.25;;;;;;;18.69;55.22;101565.66;4965439;28;20038;-78
2021/04/18 09:25:00;;;;;;;11.95;4.68;;;;;;;18.94;54.81;101555.53;4974496;28;20034;-77
2021/04/18 09:27:33;;;;;;;9.05;4.60;;;;;;;19.09;54.36;101554.38;4968377;28;20113;-78
2021/04/18 09:30:06;;;;;;;8.77;3.90;;;;;;;18.97;56.03;101568.41;4976887;28;20097;-78
2021/04/18 09:32:33;;;;;;;7.45;3.85;;;;;;;19.34;55.17;101571.56;4971394;28;20027;-78
2021/04/18 09:34:59;;;;;;;9.15;4.18;;;;;;;19.30;52.75;101570.75;4973920;28;20522;-78
2021/04/18 09:37:29;;;;;;;12.27;4.43;;;;;;;19.60;53.34;101573.09;4973696;28;20039;-76
2021/04/18 09:40:00;;;;;;;8.02;4.28;;;;;;;19.74;54.03;101568.38;4974777;28;20038;-76
2021/04/18 09:42:27;;;;;;;11.35;4.45;;;;;;;19.83;53.28;101569.91;4971615;28;20035;-77
2021/04/18 09:45:06;;;;;;;8.77;4.38;;;;;;;20.14;53.65;101563.56;4966126;28;20554;-77
2021/04/18 09:47:32;;;;;;;13.82;4.50;;;;;;;20.31;51.74;101570.94;4968878;28;20490;-78
2021/04/18 09:50:00;;;;;;;10.68;4.38;;;;;;;20.08;51.60;101576.09;4954949;28;20035;-78
2021/04/18 09:52:33;;;;;;;11.18;4.13;;;;;;;20.13;51.12;101583.91;4975181;28;20038;-78
2021/04/18 09:55:11;;;;;;;9.55;4.80;;;;;;;19.90;50.42;101569.91;4959153;28;20531;-78
2021/04/18 09:57:47;;;;;;;9.20;4.45;;;;;;;19.32;53.16;101560.25;4965095;28;20031;-77
2021/04/18 10:00:16;;;;;;;10.90;4.60;;;;;;;19.84;52.50;101576.97;4970063;28;20033;-78
2021/04/18 10:02:56;;;;;;;10.95;4.50;;;;;;;20.07;50.17;101574.53;4948302;28;20035;-79
2021/04/18 10:05:22;;;;;;;8.57;4.32;;;;;;;20.02;51.11;101564.78;4940273;28;20132;-78
2021/04/18 10:07:48;;;;;;;7.55;4.40;;;;;;;20.34;50.54;101568.19;4968308;28;20031;-78
2021/04/18 10:10:30;;;;;;;9.85;4.68;;;;;;;20.63;49.83;101569.59;4953872;28;20059;-77
2021/04/18 10:12:56;;;;;;;10.95;4.60;;;;;;;20.56;49.08;101563.38;4957532;28;20030;-79
2021/04/18 10:15:21;;;;;;;8.90;4.10;;;;;;;20.74;49.54;101569.53;4956578;28;20057;-77
2021/04/18 10:17:47;;;;;;;10.52;4.80;;;;;;;20.65;48.62;101561.00;4957789;28;20042;-77
2021/04/18 10:20:27;;;;;;;7.05;4.13;;;;;;;20.72;49.58;101554.69;4954441;28;20031;-77
2021/04/18 10:23:07;;;;;;;8.88;4.47;;;;;;;20.76;47.87;101555.44;4952103;28;20031;-78
2021/04/18 10:25:34;;;;;;;8.38;4.20;;;;;;;20.81;48.91;101560.50;4949598;28;20492;-77
2021/04/18 10:28:00;;;;;;;10.60;4.35;;;;;;;20.67;49.28;101558.63;4956523;28;20102;-79
2021/04/18 10:30:27;;;;;;;9.13;4.30;;;;;;;20.79;48.00;101549.94;4938208;28;20035;-79
2021/04/18 10:32:52;;;;;;;12.90;4.72;;;;;;;20.93;48.61;101557.25;4963806;28;20054;-78
2021/04/18 10:35:18;;;;;;;10.23;4.20;;;;;;;21.14;48.69;101549.69;4972004;28;20034;-77
2021/04/18 10:37:45;;;;;;;10.77;4.72;;;;;;;21.33;48.02;101540.91;4960451;28;20031;-79
2021/04/18 10:40:13;;;;;;;9.68;4.80;;;;;;;21.47;47.76;101546.25;4968091;28;20049;-79
2021/04/18 10:42:39;;;;;;;9.88;4.75;;;;;;;21.68;47.25;101547.22;4972963;28;20030;-78
2021/04/18 10:45:05;;;;;;;8.23;4.40;;;;;;;21.77;46.37;101544.78;4969860;28;20046;-79
2021/04/18 10:47:30;;;;;;;9.10;5.05;;;;;;;21.75;46.46;101538.91;4968186;28;20045;-77
2021/04/18 10:49:56;;;;;;;9.20;4.97;;;;;;;21.38;47.60;101540.47;4964013;28;20102;-77
2021/04/18 10:52:22;;;;;;;9.82;4.97;;;;;;;21.56;47.15;101543.81;4968240;28;20046;-78
2021/04/18 10:54:47;;;;;;;8.00;4.00;;;;;;;21.67;46.17;101538.22;4972147;28;20030;-77
2021/04/18 10:57:13;;;;;;;10.15;4.68;;;;;;;21.07;45.94;101541.53;4965741;28;20104;-78
2021/04/18 10:59:38;;;;;;;11.07;5.43;;;;;;;21.21;47.02;101544.16;4971824;28;20031;-79
2021/04/18 11:02:04;;;;;;;8.30;5.13;;;;;;;20.69;48.11;101535.13;4962500;28;20058;-77
2021/04/18 11:04:29;;;;;;;11.85;5.50;;;;;;;21.44;48.44;101529.84;4963160;28;20611;-77
2021/04/18 11:06:55;;;;;;;14.15;5.28;;;;;;;22.04;47.22;101529.19;4965014;28;20034;-79
2021/04/18 11:09:20;;;;;;;9.75;5.03;;;;;;;21.69;45.95;101538.59;4967535;28;20075;-78
2021/04/18 11:11:46;;;;;;;11.93;5.53;;;;;;;21.46;45.88;101532.97;4943570;28;20054;-79
2021/04/18 11:14:11;;;;;;;13.50;5.70;;;;;;;21.72;46.61;101532.28;4950767;28;20549;-78
2021/04/18 11:16:37;;;;;;;9.27;5.20;;;;;;;21.49;46.26;101537.63;4962905;28;20055;-78
2021/04/18 11:19:02;;;;;;;9.20;5.38;;;;;;;21.45;46.18;101545.88;4962164;28;20102;-78
2021/04/18 11:21:28;;;;;;;12.23;5.65;;;;;;;21.61;45.96;101541.81;4975132;28;20122;-78
2021/04/18 11:23:55;;;;;;;14.80;5.60;;;;;;;21.42;46.71;101538.47;4972998;28;20091;-77
2021/04/18 11:26:24;;;;;;;11.05;5.28;;;;;;;21.35;46.90;101529.56;4990287;28;20030;-77